Time;durP1;ratioP1;P1;durP2;ratioP2;P2;SDS_P1;SDS_P2;PMS_P1;PMS_P2;Temp;Humidity;BMP_temperature;BMP_pressure;BME280_temperature;BME280_humidity;BME280_pressure;Samples;Min_cycle;Max_cycle;Signal;HPM_P1;HPM_P2
2023/07/22 00:01:23;;;;;;;;;;;;;;;20.71;75.97;99948.88;5429787;32;34747;-79
2023/07/22 00:04:25;;;;;;;;;;;;;;;21.20;74.91;99949.84;5440636;32;34652;-70
2023/07/22 00:07:27;;;;;;;;;;;;;;;21.39;73.71;99949.91;5444010;32;34681;-70
2023/07/22 00:10:29;;;;;;;;;;;;;;;20.96;75.82;99948.37;5445113;32;35044;-68
2023/07/22 00:13:32;;;;;;;;;;;;;;;21.00;74.92;99949.81;5433404;32;34986;-78
2023/07/22 00:16:34;;;;;;;;;;;;;;;20.66;77.21;99940.41;5420461;32;34167;-70
2023/07/22 00:19:36;;;;;;;;;;;;;;;21.45;74.37;99949.34;5441751;32;34447;-79
2023/07/22 00:22:41;;;;;;;;;;;;;;;22.06;70.49;99942.81;5427099;32;35491;-68
2023/07/22 00:25:43;;;;;;;;;;;;;;;22.17;69.96;99945.34;5444803;32;35023;-79
2023/07/22 00:28:45;;;;;;;;;;;;;;;21.28;73.00;99953.53;5444894;32;35602;-79
2023/07/22 00:31:47;;;;;;;;;;;;;;;21.28;74.30;99941.97;5440166;32;35154;-68
2023/07/22 00:34:48;;;;;;;;;;;;;;;21.43;73.52;99937.94;5444993;32;35166;-68
2023/07/22 00:37:50;;;;;;;;;;;;;;;21.55;73.52;99944.81;5428657;32;35119;-80
2023/07/22 00:40:53;;;;;;;;;;;;;;;21.52;73.90;99937.09;5429873;32;35415;-79
2023/07/22 00:43:55;;;;;;;;;;;;;;;20.86;76.63;99930.63;5442826;32;34720;-68
2023/07/22 00:46:58;;;;;;;;;;;;;;;21.53;74.32;99933.44;5443805;32;34982;-68
2023/07/22 00:50:01;;;;;;;;;;;;;;;21.80;72.53;99937.22;5426753;32;35567;-67
2023/07/22 00:53:03;;;;;;;;;;;;;;;21.94;72.00;99951.97;5417071;32;35139;-68
2023/07/22 00:56:05;;;;;;;;;;;;;;;21.00;76.10;99955.16;5447735;32;35419;-68
2023/07/22 00:59:07;;;;;;;;;;;;;;;21.08;76.16;99951.78;5426487;32;34636;-79
2023/07/22 01:02:09;;;;;;;;;;;;;;;21.32;74.94;99964.81;5447282;32;35606;-79
2023/07/22 01:05:12;;;;;;;;;;;;;;;21.61;73.55;99975.50;5442160;32;35298;-68
2023/07/22 01:08:14;;;;;;;;;;;;;;;21.62;73.63;99974.53;5444238;32;35260;-78
2023/07/22 01:11:16;;;;;;;;;;;;;;;21.31;74.66;99985.31;5443889;32;35281;-76
2023/07/22 01:14:17;;;;;;;;;;;;;;;21.25;75.73;100001.03;5438484;32;34545;-80
2023/07/22 01:17:19;;;;;;;;;;;;;;;21.21;75.70;99997.81;5447148;32;34454;-69
2023/07/22 01:20:21;;;;;;;;;;;;;;;20.67;78.55;99985.66;5439668;32;34766;-69
2023/07/22 01:23:23;;;;;;;;;;;;;;;21.04;77.38;99990.44;5433492;32;34783;-68
2023/07/22 01:26:25;;;;;;;;;;;;;;;21.81;73.49;99985.22;5425186;32;34734;-76
2023/07/22 01:29:28;;;;;;;;;;;;;;;21.78;73.40;99996.22;5438751;32;34833;-80
2023/07/22 01:32:30;;;;;;;;;;;;;;;20.96;76.83;99999.16;5430993;32;35481;-77
2023/07/22 01:35:32;;;;;;;;;;;;;;;21.10;76.21;100009.44;5422557;32;34716;-67
2023/07/22 01:38:34;;;;;;;;;;;;;;;21.51;73.31;100012.09;5450065;32;35080;-68
2023/07/22 01:41:36;;;;;;;;;;;;;;;20.51;78.09;100006.69;5438443;32;34954;-69
2023/07/22 01:44:39;;;;;;;;;;;;;;;20.83;75.97;100012.75;5441089;32;34226;-79
2023/07/22 01:47:41;;;;;;;;;;;;;;;21.28;73.69;100014.13;5429429;32;34314;-68
2023/07/22 01:50:43;;;;;;;;;;;;;;;21.27;74.61;100026.66;5420654;32;34832;-68
2023/07/22 01:53:45;;;;;;;;;;;;;;;21.23;74.48;100022.56;5444747;32;35871;-69
2023/07/22 01:56:47;;;;;;;;;;;;;;;21.53;72.85;100027.03;5426770;32;34769;-79
2023/07/22 01:59:49;;;;;;;;;;;;;;;20.92;75.46;100027.09;5443638;32;34846;-79
2023/07/22 02:02:51;;;;;;;;;;;;;;;20.80;76.10;100030.84;5430352;32;36768;-80
2023/07/22 02:05:54;;;;;;;;;;;;;;;20.62;77.84;100033.31;5434969;32;34966;-69
2023/07/22 02:08:56;;;;;;;;;;;;;;;21.05;74.81;100037.56;5442857;32;35006;-77
2023/07/22 02:11:58;;;;;;;;;;;;;;;21.15;73.78;100037.59;5417623;32;35331;-80
2023/07/22 02:15:00;;;;;;;;;;;;;;;21.40;73.70;100042.47;5439552;32;34652;-79
2023/07/22 02:18:02;;;;;;;;;;;;;;;21.34;73.51;100040.34;5427049;32;34677;-70
2023/07/22 02:21:04;;;;;;;;;;;;;;;21.01;74.89;100052.19;5443848;32;34273;-75
2023/07/22 02:24:06;;;;;;;;;;;;;;;21.81;70.85;100057.44;5432884;32;34251;-68
2023/07/22 02:27:08;;;;;;;;;;;;;;;20.63;75.16;100067.03;5449898;32;34764;-70
2023/07/22 02:30:10;;;;;;;;;;;;;;;20.52;76.56;100073.28;5443956;32;35024;-79
2023/07/22 02:33:13;;;;;;;;;;;;;;;20.29;78.09;100074.37;5441135;32;34399;-69
2023/07/22 02:36:14;;;;;;;;;;;;;;;20.54;77.05;100076.69;5446929;32;35614;-76
2023/07/22 02:39:16;;;;;;;;;;;;;;;20.53;77.63;100077.66;5444321;32;34870;-79
2023/07/22 02:42:18;;;;;;;;;;;;;;;20.41;77.95;100069.81;5434884;32;35144;-80
2023/07/22 02:45:20;;;;;;;;;;;;;;;20.55;77.31;100072.19;5444990;32;34215;-69
2023/07/22 02:48:22;;;;;;;;;;;;;;;20.78;76.44;100078.22;5449072;32;34968;-81
2023/07/22 02:51:24;;;;;;;;;;;;;;;20.25;77.93;100096.94;5444052;32;35331;-76
2023/07/22 02:54:26;;;;;;;;;;;;;;;20.36;78.67;100088.91;5429328;32;35915;-78
2023/07/22 02:57:28;;;;;;;;;;;;;;;20.87;77.03;100085.44;5447675;32;34816;-69
2023/07/22 03:00:30;;;;;;;;;;;;;;;21.26;74.15;100088.28;5433069;32;34569;-79
2023/07/22 03:03:33;;;;;;;;;;;;;;;21.40;73.26;100095.09;5450132;32;35267;-77
2023/07/22 03:06:35;;;;;;;;;;;;;;;21.26;73.39;100088.28;5423562;32;34836;-79
2023/07/22 03:09:37;;;;;;;;;;;;;;;21.40;72.65;100100.44;5445918;32;34616;-68
2023/07/22 03:12:39;;;;;;;;;;;;;;;21.50;72.47;100101.31;5444147;32;35346;-79
2023/07/22 03:15:40;;;;;;;;;;;;;;;20.91;74.60;100110.88;5446769;32;34848;-79
2023/07/22 03:18:43;;;;;;;;;;;;;;;20.77;75.73;100113.91;5434214;32;35074;-79
2023/07/22 03:21:46;;;;;;;;;;;;;;;21.10;74.75;100105.63;5431396;32;34761;-81
2023/07/22 03:24:49;;;;;;;;;;;;;;;20.79;75.70;100104.78;5448039;32;35043;-80
2023/07/22 03:27:50;;;;;;;;;;;;;;;20.59;76.23;100094.13;5443002;32;34879;-81
2023/07/22 03:30:52;;;;;;;;;;;;;;;20.96;75.22;100102.50;5424340;32;35013;-67
2023/07/22 03:33:55;;;;;;;;;;;;;;;20.68;76.77;100104.03;5428653;32;34556;-81
2023/07/22 03:36:57;;;;;;;;;;;;;;;21.17;74.25;100089.91;5429851;32;36312;-79
2023/07/22 03:39:59;;;;;;;;;;;;;;;21.52;71.36;100094.00;5446131;32;34607;-81
2023/07/22 03:43:01;;;;;;;;;;;;;;;21.55;66.41;100097.25;5443295;32;35550;-70
2023/07/22 03:46:03;;;;;;;;;;;;;;;21.51;68.02;100103.88;5447440;32;34398;-79
2023/07/22 03:49:07;;;;;;;;;;;;;;;22.20;63.37;100107.47;5440645;32;34876;-68
2023/07/22 03:52:09;;;;;;;;;;;;;;;22.17;63.68;100101.44;5441902;32;35638;-78
2023/07/22 03:55:11;;;;;;;;;;;;;;;22.83;60.54;100108.66;5432526;32;34842;-81
2023/07/22 03:58:13;;;;;;;;;;;;;;;22.96;59.75;100111.06;5441136;32;35439;-70
2023/07/22 04:01:15;;;;;;;;;;;;;;;22.26;62.76;100109.59;5445616;32;34659;-77
2023/07/22 04:04:17;;;;;;;;;;;;;;;21.79;66.26;100114.75;5443799;32;35410;-68
2023/07/22 04:07:19;;;;;;;;;;;;;;;22.30;63.79;100119.03;5447159;32;34771;-68
2023/07/22 04:10:21;;;;;;;;;;;;;;;23.05;60.15;100117.34;5430738;32;34419;-70
2023/07/22 04:13:23;;;;;;;;;;;;;;;23.12;59.68;100113.97;5444680;32;34774;-68
2023/07/22 04:16:25;;;;;;;;;;;;;;;22.91;60.35;100110.63;5444106;32;35633;-80
2023/07/22 04:19:28;;;;;;;;;;;;;;;22.62;61.85;100116.06;5426021;32;34753;-69
2023/07/22 04:22:32;;;;;;;;;;;;;;;22.97;59.67;100104.69;5442556;32;35679;-77
2023/07/22 04:25:41;;;;;;;;;;;;;;;22.22;63.01;100111.72;5442549;32;35527;-70
2023/07/22 04:28:43;;;;;;;;;;;;;;;21.86;63.98;100100.69;5435240;32;34586;-68
2023/07/22 04:31:45;;;;;;;;;;;;;;;22.64;62.02;100104.19;5439838;32;34371;-80
2023/07/22 04:34:46;;;;;;;;;;;;;;;22.47;63.42;100107.59;5418461;32;34573;-80
2023/07/22 04:37:48;;;;;;;;;;;;;;;22.26;65.00;100105.09;5445433;32;35561;-80
2023/07/22 04:40:50;;;;;;;;;;;;;;;21.75;66.87;100106.16;5439251;32;35510;-68
2023/07/22 04:43:52;;;;;;;;;;;;;;;22.23;65.52;100107.22;5434134;32;34960;-68
2023/07/22 04:46:55;;;;;;;;;;;;;;;23.28;61.35;100112.47;5440655;32;35372;-78
2023/07/22 04:49:57;;;;;;;;;;;;;;;21.93;65.04;100113.50;5440590;32;35138;-70
2023/07/22 04:52:59;;;;;;;;;;;;;;;22.13;64.00;100124.09;5428199;32;35556;-68
2023/07/22 04:56:02;;;;;;;;;;;;;;;22.33;64.03;100121.41;5445999;32;34612;-76
2023/07/22 04:59:04;;;;;;;;;;;;;;;22.91;62.54;100122.19;5428456;32;34930;-68
2023/07/22 05:02:06;;;;;;;;;;;;;;;23.50;59.62;100125.47;5441825;32;35016;-77
2023/07/22 05:05:09;;;;;;;;;;;;;;;23.07;61.19;100129.63;5437450;32;35229;-68
2023/07/22 05:08:11;;;;;;;;;;;;;;;24.49;56.43;100125.56;5440267;32;34774;-68
2023/07/22 05:11:13;;;;;;;;;;;;;;;24.82;55.01;100132.84;5447338;32;34823;-79
2023/07/22 05:14:15;;;;;;;;;;;;;;;24.34;56.48;100138.66;5442173;32;34608;-68
2023/07/22 05:17:17;;;;;;;;;;;;;;;25.20;54.16;100124.53;5444121;32;34626;-81
2023/07/22 05:20:19;;;;;;;;;;;;;;;25.15;53.17;100130.38;5433643;32;34371;-81
2023/07/22 05:23:21;;;;;;;;;;;;;;;25.26;53.51;100131.97;5443263;32;35084;-69
2023/07/22 05:26:23;;;;;;;;;;;;;;;25.23;52.44;100130.41;5436035;32;34348;-69
2023/07/22 05:29:26;;;;;;;;;;;;;;;26.45;50.03;100138.87;5441689;32;35378;-77
2023/07/22 05:32:29;;;;;;;;;;;;;;;26.10;50.12;100139.16;5434861;32;35239;-69
2023/07/22 05:35:35;;;;;;;;;;;;;;;24.89;53.65;100149.19;5438073;32;34849;-69
2023/07/22 05:38:37;;;;;;;;;;;;;;;25.21;51.87;100153.09;5442647;32;35638;-80
2023/07/22 05:41:39;;;;;;;;;;;;;;;25.77;50.95;100157.09;5433489;32;34769;-80
2023/07/22 05:44:42;;;;;;;;;;;;;;;24.82;52.80;100167.78;5442600;32;34942;-76
2023/07/22 05:47:44;;;;;;;;;;;;;;;25.46;52.09;100162.97;5437215;32;34863;-69
2023/07/22 05:50:47;;;;;;;;;;;;;;;24.60;53.56;100170.94;5429782;32;33678;-71
2023/07/22 05:53:49;;;;;;;;;;;;;;;24.72;54.01;100167.03;5430612;32;35105;-80
2023/07/22 05:56:51;;;;;;;;;;;;;;;24.52;55.47;100179.78;5426185;32;34944;-69
2023/07/22 05:59:53;;;;;;;;;;;;;;;24.45;54.83;100175.19;5443053;32;35041;-71
2023/07/22 06:03:09;;;;;;;;;;;;;;;25.83;50.82;100175.28;5436754;32;34869;-69
2023/07/22 06:06:11;;;;;;;;;;;;;;;25.53;51.39;100168.56;5429826;32;34305;-69
2023/07/22 06:09:14;;;;;;;;;;;;;;;26.40;49.06;100178.09;5445914;32;35734;-70
2023/07/22 06:12:18;;;;;;;;;;;;;;;26.48;48.84;100182.66;5440238;32;35298;-69
2023/07/22 06:15:20;;;;;;;;;;;;;;;24.83;52.67;100188.28;5446666;32;34252;-80
2023/07/22 06:18:23;;;;;;;;;;;;;;;25.95;49.39;100176.63;5441253;32;34290;-77
2023/07/22 06:21:25;;;;;;;;;;;;;;;26.06;49.40;100175.50;5440049;32;34764;-69
2023/07/22 06:24:27;;;;;;;;;;;;;;;25.63;50.25;100180.03;5444402;32;35053;-80
2023/07/22 06:27:31;;;;;;;;;;;;;;;28.21;44.17;100185.56;5430475;32;34512;-82
2023/07/22 06:30:34;;;;;;;;;;;;;;;28.00;43.71;100173.53;5432464;32;34690;-81
2023/07/22 06:33:36;;;;;;;;;;;;;;;27.70;44.49;100179.81;5435989;32;35066;-70
2023/07/22 06:36:37;;;;;;;;;;;;;;;28.63;42.40;100177.00;5443487;32;35369;-80
2023/07/22 06:39:39;;;;;;;;;;;;;;;28.18;43.56;100173.25;5426288;32;35394;-68
2023/07/22 06:42:41;;;;;;;;;;;;;;;27.20;43.99;100173.69;5441298;32;34824;-79
2023/07/22 06:45:43;;;;;;;;;;;;;;;26.86;46.19;100170.38;5445291;32;34819;-69
2023/07/22 06:48:45;;;;;;;;;;;;;;;26.84;46.09;100172.37;5431715;32;34713;-69
2023/07/22 06:51:47;;;;;;;;;;;;;;;27.41;44.85;100172.28;5444895;32;34428;-69
2023/07/22 06:54:49;;;;;;;;;;;;;;;30.14;39.12;100155.03;5436923;32;34381;-70
2023/07/22 06:57:51;;;;;;;;;;;;;;;28.70;42.02;100169.84;5430506;32;35007;-80
2023/07/22 07:00:55;;;;;;;;;;;;;;;29.40;40.19;100174.06;5427283;32;36286;-70
2023/07/22 07:03:57;;;;;;;;;;;;;;;28.64;42.58;100169.75;5425556;32;34616;-69
2023/07/22 07:06:59;;;;;;;;;;;;;;;27.63;44.74;100176.06;5429493;32;35073;-69
2023/07/22 07:10:01;;;;;;;;;;;;;;;27.53;45.22;100182.53;5432148;32;35138;-68
2023/07/22 07:13:03;;;;;;;;;;;;;;;27.46;44.99;100176.13;5446699;32;34366;-81
2023/07/22 07:16:22;;;;;;;;;;;;;;;28.00;43.64;100181.66;5444212;32;34559;-70
2023/07/22 07:19:24;;;;;;;;;;;;;;;27.86;44.07;100187.81;5442089;32;35691;-81
2023/07/22 07:22:26;;;;;;;;;;;;;;;27.82;43.82;100188.31;5430123;32;35254;-70
2023/07/22 07:25:28;;;;;;;;;;;;;;;28.47;42.60;100185.28;5430742;32;35202;-69
2023/07/22 07:28:30;;;;;;;;;;;;;;;29.60;41.10;100177.09;5442818;32;34312;-69
2023/07/22 07:31:32;;;;;;;;;;;;;;;28.92;41.77;100186.25;5439941;32;34294;-81
2023/07/22 07:34:35;;;;;;;;;;;;;;;29.65;39.80;100180.91;5431990;32;34999;-82
2023/07/22 07:37:37;;;;;;;;;;;;;;;29.03;41.94;100197.47;5431068;32;35035;-81
2023/07/22 07:40:39;;;;;;;;;;;;;;;29.43;40.77;100198.06;5440048;32;34690;-70
2023/07/22 07:43:41;;;;;;;;;;;;;;;30.48;38.05;100197.72;5435481;32;34896;-71
2023/07/22 07:46:43;;;;;;;;;;;;;;;30.57;38.57;100195.69;5438867;32;35282;-78
2023/07/22 07:49:45;;;;;;;;;;;;;;;29.34;40.69;100208.16;5443168;32;34599;-69
2023/07/22 07:52:47;;;;;;;;;;;;;;;29.86;38.62;100209.06;5443228;32;34958;-79
2023/07/22 07:55:49;;;;;;;;;;;;;;;29.99;37.79;100209.25;5446529;32;34592;-80
2023/07/22 07:58:52;;;;;;;;;;;;;;;29.45;38.55;100235.78;5443847;32;34817;-80
2023/07/22 08:01:54;;;;;;;;;;;;;;;29.99;37.61;100225.50;5427214;32;35078;-80
2023/07/22 08:04:56;;;;;;;;;;;;;;;28.54;40.80;100243.84;5445682;32;35106;-77
2023/07/22 08:07:58;;;;;;;;;;;;;;;28.85;39.48;100248.31;5442838;32;34473;-69
2023/07/22 08:11:01;;;;;;;;;;;;;;;29.54;38.11;100250.94;5447579;32;34956;-80
2023/07/22 08:14:03;;;;;;;;;;;;;;;29.08;39.04;100259.16;5442698;32;34928;-80
2023/07/22 08:17:05;;;;;;;;;;;;;;;28.68;39.76;100258.44;5442006;32;35144;-70
2023/07/22 08:20:08;;;;;;;;;;;;;;;29.78;37.77;100256.06;5441590;32;34957;-78
2023/07/22 08:23:10;;;;;;;;;;;;;;;29.93;37.40;100266.88;5441972;32;34457;-81
2023/07/22 08:26:12;;;;;;;;;;;;;;;30.73;36.21;100258.72;5446349;32;34621;-80
2023/07/22 08:29:14;;;;;;;;;;;;;;;27.75;42.42;100277.28;5431296;32;34678;-77
2023/07/22 08:32:16;;;;;;;;;;;;;;;30.63;37.20;100265.44;5446253;32;34607;-69
2023/07/22 08:35:18;;;;;;;;;;;;;;;30.59;36.00;100280.41;5430440;32;34713;-70
2023/07/22 08:38:20;;;;;;;;;;;;;;;30.58;36.09;100286.88;5433164;32;35404;-71
2023/07/22 08:41:22;;;;;;;;;;;;;;;31.25;35.30;100286.53;5441504;32;34847;-70
2023/07/22 08:44:24;;;;;;;;;;;;;;;30.96;35.67;100287.50;5429929;32;34607;-78
2023/07/22 08:47:27;;;;;;;;;;;;;;;30.92;35.78;100288.94;5426466;32;34227;-70
2023/07/22 08:50:30;;;;;;;;;;;;;;;32.20;33.94;100285.88;5425864;32;34652;-70
2023/07/22 08:53:34;;;;;;;;;;;;;;;30.36;36.81;100296.88;5421322;32;34955;-69
2023/07/22 08:56:36;;;;;;;;;;;;;;;29.55;36.48;100304.91;5424320;32;34331;-80
2023/07/22 08:59:38;;;;;;;;;;;;;;;30.45;35.08;100301.97;5448134;32;34288;-70
2023/07/22 09:02:40;;;;;;;;;;;;;;;30.53;34.77;100311.00;5442776;32;34939;-80
2023/07/22 09:05:42;;;;;;;;;;;;;;;30.13;35.09;100313.25;5424190;32;34924;-80
2023/07/22 09:08:45;;;;;;;;;;;;;;;30.55;34.96;100317.09;5431836;32;34623;-78
2023/07/22 09:11:47;;;;;;;;;;;;;;;31.48;33.44;100308.00;5441066;32;33274;-82
2023/07/22 09:14:49;;;;;;;;;;;;;;;30.64;34.91;100305.09;5440013;32;34822;-70
2023/07/22 09:17:51;;;;;;;;;;;;;;;32.18;31.99;100314.28;5444587;32;35784;-80
2023/07/22 09:20:53;;;;;;;;;;;;;;;31.43;33.23;100305.91;5431680;32;34318;-69
2023/07/22 09:23:55;;;;;;;;;;;;;;;31.87;32.87;100312.03;5431496;32;34995;-69
2023/07/22 09:26:58;;;;;;;;;;;;;;;31.50;31.13;100314.09;5429178;32;34957;-69
2023/07/22 09:30:00;;;;;;;;;;;;;;;31.72;31.28;100315.69;5424146;32;35121;-78
2023/07/22 09:33:02;;;;;;;;;;;;;;;33.02;29.10;100312.06;5428581;32;35671;-69
2023/07/22 09:36:04;;;;;;;;;;;;;;;33.01;29.23;100304.94;5428092;32;35668;-81
2023/07/22 09:39:07;;;;;;;;;;;;;;;33.17;28.82;100309.16;5428231;32;35029;-70
2023/07/22 09:42:09;;;;;;;;;;;;;;;32.53;29.07;100309.66;5445313;32;34939;-78
2023/07/22 09:45:11;;;;;;;;;;;;;;;32.41;29.73;100311.28;5442433;32;34916;-80
2023/07/22 09:48:13;;;;;;;;;;;;;;;30.40;32.41;100308.97;5440678;32;34167;-80
2023/07/22 09:51:16;;;;;;;;;;;;;;;31.01;31.64;100301.31;5445905;32;34577;-70
2023/07/22 09:54:19;;;;;;;;;;;;;;;30.86;31.52;100292.44;5442109;32;34701;-70
2023/07/22 09:57:21;;;;;;;;;;;;;;;31.09;30.97;100290.31;5430733;32;35022;-81
2023/07/22 10:00:29;;;;;;;;;;;;;;;31.81;30.12;100298.22;5442596;32;34554;-72
2023/07/22 10:03:31;;;;;;;;;;;;;;;31.14;31.29;100281.59;5431469;32;34917;-69
2023/07/22 10:06:33;;;;;;;;;;;;;;;33.06;28.44;100279.81;5431465;32;34678;-81
2023/07/22 10:09:35;;;;;;;;;;;;;;;32.19;29.18;100276.03;5439590;32;34667;-69
2023/07/22 10:12:39;;;;;;;;;;;;;;;31.83;29.84;100295.31;5432315;32;35179;-70
2023/07/22 10:15:41;;;;;;;;;;;;;;;31.84;30.56;100301.59;5432474;32;34319;-69
2023/07/22 10:18:44;;;;;;;;;;;;;;;32.20;29.53;100298.59;5447221;32;34598;-80
2023/07/22 10:21:46;;;;;;;;;;;;;;;32.55;28.39;100302.13;5428859;32;34971;-77
2023/07/22 10:24:48;;;;;;;;;;;;;;;32.95;27.91;100304.94;5425520;32;35965;-71
2023/07/22 10:27:51;;;;;;;;;;;;;;;32.61;28.58;100307.56;5430988;32;34997;-82
2023/07/22 10:30:53;;;;;;;;;;;;;;;32.32;28.98;100307.84;5426182;32;35063;-81
2023/07/22 10:33:55;;;;;;;;;;;;;;;33.66;27.49;100314.16;5444087;32;34993;-71
2023/07/22 10:36:58;;;;;;;;;;;;;;;32.13;28.82;100312.16;5440268;32;34457;-70
2023/07/22 10:40:01;;;;;;;;;;;;;;;33.50;26.78;100313.78;5442858;32;34877;-70
2023/07/22 10:43:03;;;;;;;;;;;;;;;35.58;23.91;100306.03;5444800;32;34349;-80
2023/07/22 10:46:09;;;;;;;;;;;;;;;34.32;24.91;100317.75;5444041;32;34824;-69
2023/07/22 10:49:12;;;;;;;;;;;;;;;33.47;26.71;100300.56;5447039;32;34908;-77
2023/07/22 10:52:14;;;;;;;;;;;;;;;34.06;25.50;100300.44;5443016;32;34459;-82
2023/07/22 10:55:19;;;;;;;;;;;;;;;34.21;25.43;100295.56;5438751;32;34907;-78
2023/07/22 10:58:21;;;;;;;;;;;;;;;33.77;25.65;100288.16;5444013;32;35794;-70
2023/07/22 11:01:27;;;;;;;;;;;;;;;34.98;24.41;100282.78;5436462;32;34277;-70
2023/07/22 11:04:32;;;;;;;;;;;;;;;34.44;24.42;100278.69;5440443;32;34503;-80
2023/07/22 11:08:02;;;;;;;;;;;;;;;33.35;25.75;100287.56;5439316;32;34741;-77
2023/07/22 11:11:05;;;;;;;;;;;;;;;32.91;26.78;100281.91;5431004;32;35004;-78
2023/07/22 11:14:13;;;;;;;;;;;;;;;33.52;25.72;100279.81;5435137;32;34204;-79
2023/07/22 11:17:15;;;;;;;;;;;;;;;32.39;27.15;100281.56;5430261;32;35445;-70
2023/07/22 11:20:17;;;;;;;;;;;;;;;33.33;26.22;100281.47;5434724;32;34457;-71
2023/07/22 11:23:19;;;;;;;;;;;;;;;32.92;26.29;100270.81;5444418;32;35782;-77
2023/07/22 11:26:21;;;;;;;;;;;;;;;33.53;25.54;100275.19;5421205;32;35045;-81
2023/07/22 11:29:23;;;;;;;;;;;;;;;34.44;24.47;100273.22;5431211;32;34568;-69
2023/07/22 11:32:25;;;;;;;;;;;;;;;34.02;24.29;100276.56;5444521;32;35646;-79
2023/07/22 11:35:27;;;;;;;;;;;;;;;34.48;23.56;100263.56;5441324;32;35060;-71
2023/07/22 11:38:29;;;;;;;;;;;;;;;35.85;21.85;100252.72;5443387;32;33935;-70
2023/07/22 11:41:31;;;;;;;;;;;;;;;35.18;21.68;100251.72;5443395;32;35772;-79
2023/07/22 11:44:33;;;;;;;;;;;;;;;36.17;20.76;100260.78;5437643;32;35080;-69
2023/07/22 11:47:35;;;;;;;;;;;;;;;34.14;23.35;100259.31;5448093;32;35014;-70
2023/07/22 11:50:37;;;;;;;;;;;;;;;33.28;24.53;100273.09;5429807;32;34581;-82
2023/07/22 11:53:39;;;;;;;;;;;;;;;33.92;23.48;100263.38;5448222;32;35010;-82
2023/07/22 11:56:41;;;;;;;;;;;;;;;35.68;20.37;100254.37;5442228;32;36252;-69
2023/07/22 11:59:56;;;;;;;;;;;;;;;33.28;23.32;100261.37;5449435;32;35297;-78
2023/07/22 12:02:58;;;;;;;;;;;;;;;35.74;20.68;100248.00;5443114;32;36115;-79
2023/07/22 12:06:04;;;;;;;;;;;;;;;36.80;19.31;100249.34;5430460;32;35128;-72
2023/07/22 12:09:07;;;;;;;;;;;;;;;36.25;19.73;100244.84;5439150;32;34703;-70
2023/07/22 12:12:09;;;;;;;;;;;;;;;36.94;19.23;100234.41;5443047;32;34667;-70
2023/07/22 12:15:13;;;;;;;;;;;;;;;35.14;20.87;100245.88;5447525;32;35113;-70
2023/07/22 12:18:15;;;;;;;;;;;;;;;36.76;19.95;100248.16;5441768;32;35330;-83
2023/07/22 12:21:17;;;;;;;;;;;;;;;33.96;22.66;100252.91;5436914;32;34244;-77
2023/07/22 12:24:19;;;;;;;;;;;;;;;34.37;22.20;100242.41;5443992;32;34815;-71
2023/07/22 12:27:21;;;;;;;;;;;;;;;31.75;25.49;100250.09;5440106;32;35145;-80
2023/07/22 12:30:24;;;;;;;;;;;;;;;31.62;24.82;100252.72;5446100;32;34860;-70
2023/07/22 12:33:26;;;;;;;;;;;;;;;29.68;27.25;100258.22;5439592;32;34831;-71
2023/07/22 12:36:28;;;;;;;;;;;;;;;29.31;27.72;100253.69;5436712;32;35345;-78
2023/07/22 12:39:30;;;;;;;;;;;;;;;29.58;27.82;100250.37;5443307;32;35051;-69
2023/07/22 12:42:32;;;;;;;;;;;;;;;29.22;28.63;100250.22;5445062;32;34420;-81
2023/07/22 12:45:34;;;;;;;;;;;;;;;29.83;28.41;100244.69;5445093;32;35280;-70
2023/07/22 12:48:36;;;;;;;;;;;;;;;29.17;28.72;100246.38;5443262;32;34988;-70
2023/07/22 12:51:38;;;;;;;;;;;;;;;29.56;28.14;100238.91;5446527;32;35824;-82
2023/07/22 12:54:40;;;;;;;;;;;;;;;29.50;28.87;100242.34;5442580;32;35146;-70
2023/07/22 12:57:42;;;;;;;;;;;;;;;29.53;29.17;100235.72;5447256;32;34327;-71
2023/07/22 13:00:44;;;;;;;;;;;;;;;29.58;28.88;100239.56;5442758;32;35299;-71
2023/07/22 13:03:48;;;;;;;;;;;;;;;28.72;28.26;100242.69;5429711;32;34935;-69
2023/07/22 13:06:54;;;;;;;;;;;;;;;28.67;28.07;100243.25;5443402;32;35893;-69
2023/07/22 13:09:57;;;;;;;;;;;;;;;28.92;27.78;100243.91;5429374;32;36122;-71
2023/07/22 13:12:59;;;;;;;;;;;;;;;29.89;27.00;100231.22;5446629;32;35083;-69
2023/07/22 13:16:01;;;;;;;;;;;;;;;29.59;27.82;100232.28;5442702;32;34689;-70
2023/07/22 13:19:03;;;;;;;;;;;;;;;28.55;29.26;100226.59;5448543;32;34832;-81
2023/07/22 13:22:05;;;;;;;;;;;;;;;29.04;29.13;100220.78;5420524;32;35254;-80
2023/07/22 13:25:08;;;;;;;;;;;;;;;29.44;28.30;100223.28;5443581;32;34655;-69
2023/07/22 13:28:11;;;;;;;;;;;;;;;29.11;28.76;100215.47;5446202;32;35097;-69
2023/07/22 13:31:13;;;;;;;;;;;;;;;30.22;27.00;100219.97;5438489;32;35368;-80
2023/07/22 13:34:15;;;;;;;;;;;;;;;29.11;28.92;100226.31;5433899;32;35027;-79
2023/07/22 13:37:17;;;;;;;;;;;;;;;28.93;29.43;100213.13;5429747;32;34692;-81
2023/07/22 13:40:19;;;;;;;;;;;;;;;28.83;29.54;100217.91;5437932;32;34951;-77
2023/07/22 13:43:21;;;;;;;;;;;;;;;29.27;29.04;100223.44;5443036;32;34199;-81
2023/07/22 13:46:23;;;;;;;;;;;;;;;29.79;26.60;100225.25;5444025;32;34656;-81
2023/07/22 13:49:25;;;;;;;;;;;;;;;29.52;27.10;100225.94;5445425;32;34665;-69
2023/07/22 13:52:27;;;;;;;;;;;;;;;29.73;26.84;100219.75;5440642;32;34965;-80
2023/07/22 13:55:29;;;;;;;;;;;;;;;29.28;27.22;100222.41;5441877;32;34280;-79
2023/07/22 13:58:30;;;;;;;;;;;;;;;29.29;25.67;100231.38;5443957;32;34369;-80
2023/07/22 14:01:33;;;;;;;;;;;;;;;29.75;26.12;100217.69;5432238;32;35415;-68
2023/07/22 14:04:35;;;;;;;;;;;;;;;28.90;27.53;100208.03;5428286;32;34139;-79
2023/07/22 14:07:38;;;;;;;;;;;;;;;29.06;27.09;100224.16;5415410;32;35428;-77
2023/07/22 14:10:39;;;;;;;;;;;;;;;29.35;26.50;100223.34;5431664;32;35019;-69
2023/07/22 14:13:41;;;;;;;;;;;;;;;29.35;26.14;100223.34;5432554;32;34443;-69
2023/07/22 14:16:43;;;;;;;;;;;;;;;29.41;26.55;100216.34;5447334;32;34949;-81
2023/07/22 14:19:45;;;;;;;;;;;;;;;28.64;27.53;100215.72;5444885;32;34498;-78
2023/07/22 14:22:49;;;;;;;;;;;;;;;28.77;27.55;100216.78;5435595;32;35074;-70
2023/07/22 14:25:51;;;;;;;;;;;;;;;29.51;26.79;100211.56;5446286;32;35518;-77
2023/07/22 14:28:53;;;;;;;;;;;;;;;29.56;26.34;100216.37;5445234;32;34686;-80
2023/07/22 14:31:56;;;;;;;;;;;;;;;28.37;27.12;100201.72;5445750;32;34961;-80
2023/07/22 14:34:58;;;;;;;;;;;;;;;29.19;26.43;100206.47;5429162;32;34771;-70
2023/07/22 14:38:00;;;;;;;;;;;;;;;29.54;26.13;100211.16;5450392;32;35244;-69
2023/07/22 14:41:02;;;;;;;;;;;;;;;28.48;27.62;100204.00;5431115;32;35068;-80
2023/07/22 14:44:07;;;;;;;;;;;;;;;28.35;27.39;100201.06;5436801;32;34354;-69
2023/07/22 14:47:08;;;;;;;;;;;;;;;28.73;26.24;100190.31;5447587;32;34901;-70
2023/07/22 14:50:11;;;;;;;;;;;;;;;29.61;25.28;100190.44;5444383;32;35097;-80
2023/07/22 14:53:12;;;;;;;;;;;;;;;29.22;26.11;100203.37;5436826;32;34836;-77
2023/07/22 14:56:14;;;;;;;;;;;;;;;29.41;26.08;100192.00;5417881;32;34417;-69
2023/07/22 14:59:16;;;;;;;;;;;;;;;29.93;25.34;100186.44;5450234;32;35415;-70
2023/07/22 15:02:18;;;;;;;;;;;;;;;29.04;25.88;100177.50;5444619;32;35593;-69
2023/07/22 15:05:20;;;;;;;;;;;;;;;29.07;26.71;100187.13;5448247;32;34510;-70
2023/07/22 15:08:22;;;;;;;;;;;;;;;29.28;25.73;100179.13;5432500;32;34694;-71
2023/07/22 15:11:24;;;;;;;;;;;;;;;28.59;27.03;100187.34;5443876;32;34855;-80
2023/07/22 15:14:27;;;;;;;;;;;;;;;29.06;26.59;100193.56;5435459;32;34502;-69
2023/07/22 15:17:31;;;;;;;;;;;;;;;29.57;26.28;100180.19;5431244;32;35071;-70
2023/07/22 15:20:34;;;;;;;;;;;;;;;29.23;26.60;100186.09;5425743;32;35393;-69
2023/07/22 15:23:36;;;;;;;;;;;;;;;29.66;25.59;100171.75;5445817;32;35355;-70
2023/07/22 15:26:38;;;;;;;;;;;;;;;30.39;24.71;100163.63;5447335;32;34081;-79
2023/07/22 15:29:42;;;;;;;;;;;;;;;30.18;24.60;100169.88;5441831;32;34638;-80
2023/07/22 15:32:44;;;;;;;;;;;;;;;29.67;25.33;100176.13;5427389;32;34131;-79
2023/07/22 15:35:46;;;;;;;;;;;;;;;29.90;24.87;100173.31;5446141;32;34766;-70
2023/07/22 15:38:48;;;;;;;;;;;;;;;28.71;26.87;100179.66;5448744;32;34755;-70